createdAt,value
2018-06-02T00:00:02.644Z,18.33
2018-06-02T00:02:35.184Z,18.35
2018-06-02T00:05:07.695Z,17.85
2018-06-02T00:07:40.233Z,17.75
2018-06-02T00:10:12.748Z,17.10
2018-06-02T00:12:45.290Z,16.87
2018-06-02T00:15:19.472Z,18.52
2018-06-02T00:17:52.001Z,16.48
2018-06-02T00:20:24.519Z,17.05
2018-06-02T00:22:57.051Z,18.62
2018-06-02T00:25:29.565Z,21.87
2018-06-02T00:28:02.104Z,16.77
2018-06-02T00:30:34.617Z,16.80
2018-06-02T00:33:07.148Z,18.15
2018-06-02T00:35:39.670Z,17.73
2018-06-02T00:38:12.212Z,19.10
2018-06-02T00:40:44.723Z,17.50
2018-06-02T00:43:17.247Z,17.65
2018-06-02T00:45:50.295Z,18.62
2018-06-02T00:48:22.828Z,18.23
2018-06-02T00:50:55.335Z,16.75
2018-06-02T00:53:27.886Z,17.75
2018-06-02T00:56:00.399Z,16.92
2018-06-02T00:58:32.934Z,16.25
2018-06-02T01:01:05.441Z,18.67
2018-06-02T01:03:37.969Z,19.50
2018-06-02T01:06:10.481Z,21.45
2018-06-02T01:08:43.014Z,19.12
2018-06-02T01:11:15.524Z,18.55
2018-06-02T01:13:48.049Z,22.62
2018-06-02T01:16:20.604Z,23.20
2018-06-02T01:18:53.111Z,21.05
2018-06-02T01:21:25.640Z,20.15
2018-06-02T01:23:58.160Z,20.27
2018-06-02T01:26:30.686Z,20.48
2018-06-02T01:29:03.201Z,21.52
2018-06-02T01:31:35.720Z,20.42
2018-06-02T01:34:08.228Z,21.62
2018-06-02T01:36:40.751Z,20.15
2018-06-02T01:39:13.261Z,22.25
2018-06-02T01:41:45.794Z,20.15
2018-06-02T01:44:18.800Z,22.87
2018-06-02T01:46:51.340Z,21.85
2018-06-02T01:49:23.853Z,20.25
2018-06-02T01:51:56.400Z,19.42
2018-06-02T01:54:28.925Z,21.10
2018-06-02T01:57:01.448Z,22.95
2018-06-02T01:59:33.955Z,25.83
2018-06-02T02:02:06.490Z,23.62
2018-06-02T02:04:38.991Z,23.65
2018-06-02T02:07:11.516Z,27.70
2018-06-02T02:09:44.024Z,30.17
2018-06-02T02:12:16.560Z,27.45
2018-06-02T02:14:49.071Z,26.70
2018-06-02T02:17:21.619Z,25.20
2018-06-02T02:19:54.133Z,29.75
2018-06-02T02:22:26.672Z,29.15
2018-06-02T02:24:59.184Z,28.87
2018-06-02T02:27:31.720Z,30.42
2018-06-02T02:30:04.233Z,30.50
2018-06-02T02:32:36.792Z,30.52
2018-06-02T02:35:09.296Z,32.25
2018-06-02T02:37:41.828Z,32.97
2018-06-02T02:40:14.345Z,33.38
2018-06-02T02:42:46.876Z,34.65
2018-06-02T02:45:20.234Z,36.78
2018-06-02T02:47:52.767Z,36.80
2018-06-02T02:50:25.273Z,36.22
2018-06-02T02:52:57.800Z,33.47
2018-06-02T02:55:30.324Z,35.55
2018-06-02T02:58:02.867Z,32.70
2018-06-02T03:00:35.383Z,32.97
2018-06-02T03:03:07.915Z,38.53
2018-06-02T03:05:40.415Z,42.38
2018-06-02T03:08:12.942Z,45.10
2018-06-02T03:10:45.448Z,46.20
2018-06-02T03:13:17.995Z,50.88
2018-06-02T03:15:50.505Z,44.03
2018-06-02T03:18:23.035Z,46.13
2018-06-02T03:20:55.555Z,50.00
2018-06-02T03:23:28.113Z,49.00
2018-06-02T03:26:00.632Z,55.10
2018-06-02T03:28:33.163Z,74.50
2018-06-02T03:31:05.676Z,92.15
2018-06-02T03:33:38.203Z,85.25
2018-06-02T03:36:10.723Z,83.12
2018-06-02T03:38:43.267Z,81.57
2018-06-02T03:41:15.779Z,78.80
2018-06-02T03:43:48.920Z,79.15
2018-06-02T03:46:21.439Z,84.28
2018-06-02T03:48:53.972Z,90.68
2018-06-02T03:51:26.496Z,84.28
2018-06-02T03:53:59.044Z,102.12
2018-06-02T03:56:31.556Z,97.55
2018-06-02T03:59:04.104Z,97.85
2018-06-02T04:01:36.612Z,93.20
2018-06-02T04:04:09.143Z,111.22
2018-06-02T04:06:41.649Z,88.68
2018-06-02T04:09:14.181Z,109.10
2018-06-02T04:11:46.734Z,153.15
2018-06-02T04:14:19.539Z,92.45
2018-06-02T04:16:52.047Z,122.43
2018-06-02T04:19:24.605Z,111.95
2018-06-02T04:21:57.119Z,104.15
2018-06-02T04:24:29.651Z,131.85
2018-06-02T04:27:02.152Z,98.12
2018-06-02T04:29:34.687Z,126.15
2018-06-02T04:32:07.203Z,99.70
2018-06-02T04:34:39.745Z,119.95
2018-06-02T04:37:12.273Z,97.22
2018-06-02T04:39:44.819Z,100.75
2018-06-02T04:42:17.341Z,115.15
2018-06-02T04:44:50.743Z,124.95
2018-06-02T04:47:23.252Z,106.68
2018-06-02T04:49:55.794Z,101.62
2018-06-02T04:52:28.309Z,117.43
2018-06-02T04:55:00.847Z,113.10
2018-06-02T04:57:33.361Z,143.87
2018-06-02T05:00:05.909Z,148.77
2018-06-02T05:02:38.435Z,113.47
2018-06-02T05:05:10.984Z,144.52
2018-06-02T05:07:43.531Z,107.15
2018-06-02T05:10:16.058Z,101.07
2018-06-02T05:12:49.700Z,101.18
2018-06-02T05:15:22.217Z,120.05
2018-06-02T05:17:54.757Z,115.43
2018-06-02T05:20:27.269Z,105.37
2018-06-02T05:22:59.796Z,104.72
2018-06-02T05:25:32.313Z,108.07
2018-06-02T05:28:04.847Z,109.00
2018-06-02T05:30:37.356Z,111.93
2018-06-02T05:33:09.883Z,124.82
2018-06-02T05:35:42.395Z,102.53
2018-06-02T05:38:14.921Z,99.45
2018-06-02T05:40:47.432Z,92.37
2018-06-02T05:43:20.841Z,100.15
2018-06-02T05:45:53.368Z,100.75
2018-06-02T05:48:25.898Z,96.97
2018-06-02T05:50:58.416Z,93.60
2018-06-02T05:53:30.944Z,101.78
2018-06-02T05:56:03.452Z,98.22
2018-06-02T05:58:35.977Z,93.10
2018-06-02T06:01:08.476Z,76.40
2018-06-02T06:03:41.004Z,76.53
2018-06-02T06:06:13.532Z,81.32
2018-06-02T06:08:46.051Z,80.35
2018-06-02T06:11:19.721Z,67.18
2018-06-02T06:13:52.243Z,71.47
2018-06-02T06:16:24.769Z,73.85
2018-06-02T06:18:57.308Z,82.75
2018-06-02T06:21:29.840Z,76.25
2018-06-02T06:24:02.376Z,76.15
2018-06-02T06:26:34.888Z,73.43
2018-06-02T06:29:07.423Z,69.82
2018-06-02T06:31:39.952Z,61.47
2018-06-02T06:34:12.528Z,66.50
2018-06-02T06:36:45.037Z,66.40
2018-06-02T06:39:17.565Z,60.95
2018-06-02T06:41:50.436Z,60.22
2018-06-02T06:44:22.990Z,62.38
2018-06-02T06:46:55.495Z,72.95
2018-06-02T06:49:28.030Z,64.70
2018-06-02T06:52:00.545Z,57.17
2018-06-02T06:54:33.374Z,66.18
2018-06-02T06:57:05.892Z,69.55
2018-06-02T06:59:38.437Z,58.45
2018-06-02T07:02:10.962Z,61.45
2018-06-02T07:04:43.512Z,73.85
2018-06-02T07:07:16.019Z,57.58
2018-06-02T07:09:49.404Z,51.67
2018-06-02T07:12:21.915Z,53.70
2018-06-02T07:14:54.445Z,57.55
2018-06-02T07:17:26.973Z,56.67
2018-06-02T07:19:59.508Z,48.50
2018-06-02T07:22:32.026Z,50.45
2018-06-02T07:25:04.553Z,49.65
2018-06-02T07:27:37.079Z,49.72
2018-06-02T07:30:09.645Z,48.13
2018-06-02T07:32:42.168Z,50.60
2018-06-02T07:35:14.718Z,43.87
2018-06-02T07:37:47.241Z,47.97
2018-06-02T07:40:20.305Z,44.65
2018-06-02T07:42:52.859Z,42.25
2018-06-02T07:45:25.396Z,42.75
2018-06-02T07:47:57.904Z,48.00
2018-06-02T07:50:30.439Z,44.00
2018-06-02T07:53:02.947Z,43.38
2018-06-02T07:55:35.497Z,44.40
2018-06-02T07:58:08.038Z,46.63
2018-06-02T08:00:40.576Z,47.90
2018-06-02T08:03:13.078Z,41.80
2018-06-02T08:05:45.616Z,41.55
2018-06-02T08:08:18.133Z,41.47
2018-06-02T08:10:51.501Z,43.15
2018-06-02T08:13:24.017Z,42.25
2018-06-02T08:15:56.553Z,40.92
2018-06-02T08:18:29.067Z,40.63
2018-06-02T08:21:01.609Z,47.80
2018-06-02T08:23:34.116Z,46.70
2018-06-02T08:26:06.649Z,40.90
2018-06-02T08:28:39.192Z,39.33
2018-06-02T08:31:11.733Z,44.75
2018-06-02T08:33:44.277Z,43.60
2018-06-02T08:36:16.792Z,50.63
2018-06-02T08:38:50.233Z,50.60
2018-06-02T08:41:22.756Z,50.67
2018-06-02T08:43:55.283Z,48.47
2018-06-02T08:46:27.806Z,56.53
2018-06-02T08:49:00.333Z,50.53
2018-06-02T08:51:32.854Z,53.65
2018-06-02T08:54:05.403Z,40.92
2018-06-02T08:56:37.923Z,46.80
2018-06-02T08:59:10.452Z,48.45
2018-06-02T09:01:42.997Z,44.67
2018-06-02T09:04:15.538Z,45.53
2018-06-02T09:06:48.097Z,43.08
2018-06-02T09:09:20.644Z,39.47
2018-06-02T09:11:53.167Z,42.72
2018-06-02T09:14:25.709Z,42.53
2018-06-02T09:16:58.225Z,38.00
2018-06-02T09:19:30.759Z,36.65
2018-06-02T09:22:03.832Z,35.05
2018-06-02T09:24:36.407Z,36.35
2018-06-02T09:27:08.913Z,33.15
2018-06-02T09:29:41.440Z,36.83
2018-06-02T09:32:13.955Z,36.78
2018-06-02T09:34:46.495Z,43.40
2018-06-02T09:37:19.357Z,38.88
2018-06-02T09:39:51.890Z,40.35
2018-06-02T09:42:24.406Z,42.50
2018-06-02T09:44:56.943Z,44.72
2018-06-02T09:47:29.479Z,47.85
2018-06-02T09:50:02.008Z,41.70
2018-06-02T09:52:34.534Z,43.70
2018-06-02T09:55:07.083Z,42.13
2018-06-02T09:57:39.631Z,45.90
2018-06-02T10:00:12.184Z,45.22
2018-06-02T10:02:44.705Z,52.60
2018-06-02T10:05:17.234Z,49.78
2018-06-02T10:07:50.611Z,44.00
2018-06-02T10:10:23.140Z,46.33
2018-06-02T10:12:55.655Z,54.97
2018-06-02T10:15:28.189Z,46.95
2018-06-02T10:18:00.700Z,41.58
2018-06-02T10:20:33.239Z,37.78
2018-06-02T10:23:05.752Z,38.80
2018-06-02T10:25:38.276Z,35.08
2018-06-02T10:28:10.793Z,31.90
2018-06-02T10:30:43.332Z,34.10
2018-06-02T10:33:15.852Z,29.75
2018-06-02T10:35:49.150Z,30.90
2018-06-02T10:38:21.659Z,30.70
2018-06-02T10:40:54.200Z,27.15
2018-06-02T10:43:26.731Z,24.75
2018-06-02T10:45:59.259Z,24.10
2018-06-02T10:48:31.778Z,22.17
2018-06-02T10:51:04.332Z,20.70
2018-06-02T10:53:36.850Z,20.75
2018-06-02T10:56:09.389Z,22.35
2018-06-02T10:58:41.918Z,21.02
2018-06-02T11:01:14.451Z,21.48
2018-06-02T11:03:46.952Z,20.12
2018-06-02T11:06:20.207Z,19.62
2018-06-02T11:08:52.717Z,18.30
2018-06-02T11:11:25.257Z,19.30
2018-06-02T11:13:57.770Z,18.85
2018-06-02T11:16:30.309Z,17.05
2018-06-02T11:19:02.820Z,17.77
2018-06-02T11:21:35.356Z,16.98
2018-06-02T11:24:07.870Z,16.08
2018-06-02T11:26:40.402Z,16.37
2018-06-02T11:29:12.912Z,19.42
2018-06-02T11:31:45.447Z,17.27
2018-06-02T11:34:17.990Z,21.58
2018-06-02T11:36:50.527Z,18.17
2018-06-02T11:39:23.045Z,20.20
2018-06-02T11:41:55.586Z,27.23
2018-06-02T11:44:28.096Z,22.00
2018-06-02T11:47:00.635Z,22.73
2018-06-02T11:49:33.144Z,23.30
2018-06-02T11:52:05.683Z,21.77
2018-06-02T11:54:38.201Z,22.08
2018-06-02T11:57:10.731Z,19.65
2018-06-02T11:59:43.321Z,23.35
2018-06-02T12:02:15.826Z,25.42
2018-06-02T12:04:49.031Z,24.30
2018-06-02T12:07:21.549Z,24.52
2018-06-02T12:09:54.092Z,22.35
2018-06-02T12:12:26.614Z,23.35
2018-06-02T12:14:59.320Z,23.60
2018-06-02T12:17:31.940Z,23.98
2018-06-02T12:20:04.473Z,24.33
2018-06-02T12:22:37.204Z,26.27
2018-06-02T12:25:09.735Z,26.17
2018-06-02T12:27:42.255Z,24.67
2018-06-02T12:30:14.807Z,27.52
2018-06-02T12:32:47.327Z,23.73
2018-06-02T12:35:20.699Z,23.00
2018-06-02T12:37:53.223Z,23.58
2018-06-02T12:40:25.778Z,23.62
2018-06-02T12:42:58.288Z,27.15
2018-06-02T12:45:30.824Z,25.52
2018-06-02T12:48:03.330Z,23.25
2018-06-02T12:50:35.861Z,21.87
2018-06-02T12:53:08.774Z,24.35
2018-06-02T12:55:41.737Z,20.45
2018-06-02T12:58:16.905Z,23.45
2018-06-02T13:00:51.468Z,28.33
2018-06-02T13:03:25.268Z,25.75
2018-06-02T13:05:58.356Z,28.05
2018-06-02T13:08:31.619Z,24.87
2018-06-02T13:11:04.734Z,25.42
2018-06-02T13:13:37.635Z,26.23
2018-06-02T13:16:11.609Z,27.80
2018-06-02T13:18:44.495Z,27.17
2018-06-02T13:21:17.433Z,21.70
2018-06-02T13:23:51.765Z,25.37
2018-06-02T13:26:24.645Z,24.33
2018-06-02T13:28:58.515Z,23.83
2018-06-02T13:31:31.923Z,22.52
2018-06-02T13:34:05.032Z,22.40
2018-06-02T13:36:37.957Z,23.87
2018-06-02T13:39:11.479Z,23.73
2018-06-02T13:41:45.412Z,24.23
2018-06-02T13:44:19.656Z,23.45
2018-06-02T13:46:52.510Z,25.98
2018-06-02T13:49:25.337Z,24.23
2018-06-02T13:51:58.351Z,27.10
2018-06-02T13:54:31.401Z,23.00
2018-06-02T13:57:04.272Z,23.97
2018-06-02T13:59:37.332Z,23.45
2018-06-02T14:02:10.229Z,26.30
2018-06-02T14:04:43.203Z,25.05
2018-06-02T14:07:16.301Z,24.95
2018-06-02T14:09:49.324Z,24.10
2018-06-02T14:12:22.308Z,29.63
2018-06-02T14:14:55.359Z,23.60
2018-06-02T14:17:29.305Z,22.17
2018-06-02T14:20:02.163Z,23.05
2018-06-02T14:22:35.269Z,24.52
2018-06-02T14:25:08.105Z,20.98
2018-06-02T14:27:40.976Z,21.23
2018-06-02T14:30:13.847Z,20.70
2018-06-02T14:32:46.903Z,20.77
2018-06-02T14:35:20.579Z,25.83
2018-06-02T14:37:54.956Z,21.48
2018-06-02T14:40:27.825Z,22.23
2018-06-02T14:43:01.768Z,25.98
2018-06-02T14:45:35.045Z,25.62
2018-06-02T14:48:08.082Z,25.75
2018-06-02T14:50:40.906Z,20.95
2018-06-02T14:53:13.921Z,22.55
2018-06-02T14:55:46.778Z,21.83
2018-06-02T14:58:20.452Z,21.50
2018-06-02T15:00:53.252Z,24.10
2018-06-02T15:03:26.080Z,27.13
2018-06-02T15:05:58.944Z,23.12
2018-06-02T15:08:31.723Z,27.73
2018-06-02T15:11:04.653Z,23.33
2018-06-02T15:13:38.158Z,23.90
2018-06-02T15:16:10.967Z,26.75
2018-06-02T15:18:43.530Z,25.92
2018-06-02T15:21:16.062Z,25.80
2018-06-02T15:23:49.164Z,28.25
2018-06-02T15:26:21.702Z,26.42
2018-06-02T15:28:54.220Z,29.58
2018-06-02T15:31:26.742Z,26.90
2018-06-02T15:33:59.261Z,27.30
2018-06-02T15:36:31.811Z,27.13
2018-06-02T15:39:05.063Z,29.60
2018-06-02T15:41:37.594Z,29.98
2018-06-02T15:44:10.107Z,27.60
2018-06-02T15:46:42.641Z,28.73
2018-06-02T15:49:15.151Z,30.20
2018-06-02T15:51:49.320Z,29.60
2018-06-02T15:54:21.835Z,26.45
2018-06-02T15:56:54.381Z,27.73
2018-06-02T15:59:26.894Z,24.33
2018-06-02T16:01:59.432Z,23.75
2018-06-02T16:04:31.948Z,24.85
2018-06-02T16:07:04.476Z,26.00
2018-06-02T16:09:37.000Z,23.92
2018-06-02T16:12:09.527Z,23.12
2018-06-02T16:14:42.048Z,24.25
2018-06-02T16:17:14.591Z,27.13
2018-06-02T16:19:47.134Z,23.73
2018-06-02T16:22:20.459Z,21.42
2018-06-02T16:24:52.972Z,22.77
2018-06-02T16:27:25.518Z,24.20
2018-06-02T16:29:58.041Z,25.95
2018-06-02T16:32:30.594Z,24.30
2018-06-02T16:35:03.110Z,22.92
2018-06-02T16:37:35.642Z,23.62
2018-06-02T16:40:08.187Z,24.37
2018-06-02T16:42:40.713Z,23.48
2018-06-02T16:45:13.245Z,23.98
2018-06-02T16:47:45.769Z,20.05
2018-06-02T16:50:18.787Z,22.73
2018-06-02T16:52:51.337Z,20.08
2018-06-02T16:55:23.858Z,21.10
2018-06-02T16:57:56.409Z,19.25
2018-06-02T17:00:28.920Z,18.65
2018-06-02T17:03:01.448Z,17.92
2018-06-02T17:05:33.968Z,19.15
2018-06-02T17:08:06.503Z,18.45
2018-06-02T17:10:39.016Z,19.08
2018-06-02T17:13:11.549Z,19.50
2018-06-02T17:15:44.056Z,21.12
2018-06-02T17:18:16.583Z,19.60
2018-06-02T17:20:49.095Z,22.27
2018-06-02T17:23:21.631Z,18.87
2018-06-02T17:25:54.148Z,17.98
2018-06-02T17:28:26.705Z,17.87
2018-06-02T17:30:59.257Z,20.35
2018-06-02T17:33:31.791Z,19.10
2018-06-02T17:36:04.304Z,16.95
2018-06-02T17:38:36.853Z,16.67
2018-06-02T17:41:09.355Z,16.83
2018-06-02T17:43:41.881Z,17.60
2018-06-02T17:46:14.409Z,20.52
2018-06-02T17:48:46.954Z,18.00
2018-06-02T17:51:20.183Z,17.55
2018-06-02T17:53:52.712Z,16.37
2018-06-02T17:56:25.230Z,16.17
2018-06-02T17:58:57.763Z,17.40
2018-06-02T18:01:30.271Z,17.23
2018-06-02T18:04:02.808Z,17.65
2018-06-02T18:06:35.312Z,18.12
2018-06-02T18:09:07.848Z,18.40
2018-06-02T18:11:40.360Z,17.33
2018-06-02T18:14:12.947Z,18.25
2018-06-02T18:16:45.460Z,17.70
2018-06-02T18:19:18.000Z,18.92
2018-06-02T18:21:50.531Z,17.87
2018-06-02T18:24:23.062Z,18.08
2018-06-02T18:26:55.584Z,16.85
2018-06-02T18:29:28.116Z,20.00
2018-06-02T18:32:00.657Z,17.73
2018-06-02T18:34:33.187Z,19.42
2018-06-02T18:37:05.781Z,17.08
2018-06-02T18:39:38.252Z,17.58
2018-06-02T18:42:10.788Z,19.42
2018-06-02T18:44:43.313Z,16.58
2018-06-02T18:47:15.848Z,17.08
2018-06-02T18:49:49.025Z,17.77
2018-06-02T18:52:21.828Z,17.87
2018-06-02T18:54:54.340Z,18.10
2018-06-02T18:57:26.885Z,16.85
2018-06-02T18:59:59.409Z,15.95
2018-06-02T19:02:31.934Z,18.08
2018-06-02T19:05:04.440Z,16.60
2018-06-02T19:07:36.969Z,15.52
2018-06-02T19:10:09.485Z,16.83
2018-06-02T19:12:42.017Z,16.42
2018-06-02T19:15:14.572Z,16.35
2018-06-02T19:17:47.091Z,16.27
2018-06-02T19:20:20.520Z,16.45
2018-06-02T19:22:53.053Z,16.10
2018-06-02T19:25:25.576Z,17.50
2018-06-02T19:27:58.105Z,17.42
2018-06-02T19:30:30.617Z,15.90
2018-06-02T19:33:03.149Z,17.10
2018-06-02T19:35:35.669Z,18.08
2018-06-02T19:38:08.193Z,16.20
2018-06-02T19:40:40.714Z,15.63
2018-06-02T19:43:13.281Z,14.87
2018-06-02T19:45:45.797Z,16.23
2018-06-02T19:48:18.844Z,15.65
2018-06-02T19:50:51.359Z,16.37
2018-06-02T19:53:23.893Z,15.70
2018-06-02T19:55:56.408Z,15.77
2018-06-02T19:58:28.952Z,16.95
2018-06-02T20:01:01.463Z,15.13
2018-06-02T20:03:33.991Z,15.50
2018-06-02T20:06:06.501Z,14.20
2018-06-02T20:08:39.030Z,16.30
2018-06-02T20:11:11.543Z,17.27
2018-06-02T20:13:44.077Z,16.77
2018-06-02T20:16:16.590Z,16.12
2018-06-02T20:18:49.127Z,16.23
2018-06-02T20:21:21.641Z,16.05
2018-06-02T20:23:54.179Z,16.48
2018-06-02T20:26:26.686Z,16.33
2018-06-02T20:28:59.216Z,16.52
2018-06-02T20:31:31.736Z,15.60
2018-06-02T20:34:04.272Z,15.77
2018-06-02T20:36:36.789Z,17.00
2018-06-02T20:39:09.333Z,22.55
2018-06-02T20:41:41.862Z,21.02
2018-06-02T20:44:14.399Z,16.83
2018-06-02T20:46:46.905Z,17.35
2018-06-02T20:49:20.063Z,17.33
2018-06-02T20:51:52.580Z,18.42
2018-06-02T20:54:25.144Z,19.62
2018-06-02T20:56:57.649Z,15.68
2018-06-02T20:59:30.187Z,17.02
2018-06-02T21:02:02.691Z,16.17
2018-06-02T21:04:35.231Z,16.60
2018-06-02T21:07:07.744Z,16.62
2018-06-02T21:09:40.287Z,17.25
2018-06-02T21:12:12.811Z,18.25
2018-06-02T21:14:45.334Z,19.00
2018-06-02T21:17:19.509Z,18.83
2018-06-02T21:19:52.040Z,18.80
2018-06-02T21:22:24.548Z,18.08
2018-06-02T21:24:57.107Z,16.33
2018-06-02T21:27:29.614Z,20.58
2018-06-02T21:30:02.138Z,18.08
2018-06-02T21:32:34.657Z,18.48
2018-06-02T21:35:07.196Z,18.77
2018-06-02T21:37:39.717Z,17.80
2018-06-02T21:40:12.261Z,18.35
2018-06-02T21:42:44.776Z,16.48
2018-06-02T21:45:17.308Z,21.48
2018-06-02T21:47:50.555Z,19.33
2018-06-02T21:50:23.084Z,18.62
2018-06-02T21:52:55.591Z,18.23
2018-06-02T21:55:28.188Z,17.98
2018-06-02T21:58:00.675Z,21.27
2018-06-02T22:00:33.207Z,17.65
2018-06-02T22:03:05.725Z,17.45
2018-06-02T22:05:38.268Z,22.35
2018-06-02T22:08:10.808Z,19.40
2018-06-02T22:10:43.319Z,22.55
2018-06-02T22:13:15.857Z,18.17
2018-06-02T22:15:49.016Z,18.23
2018-06-02T22:18:21.544Z,18.00
2018-06-02T22:20:54.065Z,17.27
2018-06-02T22:23:26.604Z,17.83
2018-06-02T22:25:59.116Z,19.65
2018-06-02T22:28:31.648Z,17.62
2018-06-02T22:31:04.166Z,19.48
2018-06-02T22:33:36.764Z,19.85
2018-06-02T22:36:09.301Z,19.65
2018-06-02T22:38:41.830Z,18.02
2018-06-02T22:41:14.346Z,19.95
2018-06-02T22:43:46.883Z,23.58
2018-06-02T22:46:20.026Z,19.90
2018-06-02T22:48:52.535Z,22.60
2018-06-02T22:51:36.782Z,22.77
2018-06-02T22:54:09.323Z,20.83
2018-06-02T22:56:41.826Z,22.77
2018-06-02T22:59:14.351Z,24.40
2018-06-02T23:01:46.865Z,21.50
2018-06-02T23:04:20.196Z,21.35
2018-06-02T23:06:52.709Z,21.52
2018-06-02T23:09:25.245Z,20.48
2018-06-02T23:11:57.772Z,22.45
2018-06-02T23:14:30.309Z,24.63
2018-06-02T23:17:02.837Z,19.92
2018-06-02T23:19:35.364Z,21.00
2018-06-02T23:22:07.883Z,25.62
2018-06-02T23:24:40.427Z,23.20
2018-06-02T23:27:12.940Z,23.55
2018-06-02T23:29:45.468Z,21.27
2018-06-02T23:32:18.076Z,20.08
2018-06-02T23:34:50.600Z,23.08
2018-06-02T23:37:23.104Z,22.55
2018-06-02T23:39:55.637Z,19.40
2018-06-02T23:42:28.141Z,20.17
2018-06-02T23:45:00.668Z,18.77
2018-06-02T23:47:33.178Z,19.98
2018-06-02T23:50:05.721Z,19.77
2018-06-02T23:52:38.240Z,16.90
2018-06-02T23:55:10.772Z,20.05
2018-06-02T23:57:43.295Z,22.30
